sensor_id;sensor_type;location;lat;lon;timestamp;temperature;humidity
34776;DHT22;20989;52.566;13.346;2022-08-21T00:02:15;27.30;53.20
34776;DHT22;20989;52.566;13.346;2022-08-21T00:05:17;27.30;53.20
34776;DHT22;20989;52.566;13.346;2022-08-21T00:08:19;27.30;53.20
34776;DHT22;20989;52.566;13.346;2022-08-21T00:11:20;27.20;53.20
34776;DHT22;20989;52.566;13.346;2022-08-21T00:14:21;27.30;53.20
34776;DHT22;20989;52.566;13.346;2022-08-21T00:17:21;27.30;53.20
34776;DHT22;20989;52.566;13.346;2022-08-21T00:20:23;27.30;53.10
34776;DHT22;20989;52.566;13.346;2022-08-21T00:23:24;27.20;53.10
34776;DHT22;20989;52.566;13.346;2022-08-21T00:26:24;27.30;53.10
34776;DHT22;20989;52.566;13.346;2022-08-21T00:29:25;27.20;53.10
34776;DHT22;20989;52.566;13.346;2022-08-21T00:32:27;27.20;53.10
34776;DHT22;20989;52.566;13.346;2022-08-21T00:35:31;27.30;53.20
34776;DHT22;20989;52.566;13.346;2022-08-21T00:38:32;27.30;53.10
34776;DHT22;20989;52.566;13.346;2022-08-21T00:41:34;27.20;53.00
34776;DHT22;20989;52.566;13.346;2022-08-21T00:44:35;27.20;53.00
34776;DHT22;20989;52.566;13.346;2022-08-21T00:47:36;27.20;53.10
34776;DHT22;20989;52.566;13.346;2022-08-21T00:50:42;27.20;53.00
34776;DHT22;20989;52.566;13.346;2022-08-21T00:53:45;27.20;53.00
34776;DHT22;20989;52.566;13.346;2022-08-21T00:56:49;27.20;53.00
34776;DHT22;20989;52.566;13.346;2022-08-21T00:59:51;27.20;53.00
34776;DHT22;20989;52.566;13.346;2022-08-21T01:02:53;27.20;53.00
34776;DHT22;20989;52.566;13.346;2022-08-21T01:05:54;27.20;53.00
34776;DHT22;20989;52.566;13.346;2022-08-21T01:08:55;27.20;53.00
34776;DHT22;20989;52.566;13.346;2022-08-21T01:11:56;27.20;53.00
34776;DHT22;20989;52.566;13.346;2022-08-21T01:14:57;27.20;52.90
34776;DHT22;20989;52.566;13.346;2022-08-21T01:17:59;27.20;53.00
34776;DHT22;20989;52.566;13.346;2022-08-21T01:21:04;27.20;53.00
34776;DHT22;20989;52.566;13.346;2022-08-21T01:24:05;27.20;53.00
34776;DHT22;20989;52.566;13.346;2022-08-21T01:27:06;27.20;53.00
34776;DHT22;20989;52.566;13.346;2022-08-21T01:30:19;27.20;52.90
34776;DHT22;20989;52.566;13.346;2022-08-21T01:33:24;27.20;52.90
34776;DHT22;20989;52.566;13.346;2022-08-21T01:36:26;27.20;52.90
34776;DHT22;20989;52.566;13.346;2022-08-21T01:39:27;27.20;52.90
34776;DHT22;20989;52.566;13.346;2022-08-21T01:42:28;27.20;52.90
34776;DHT22;20989;52.566;13.346;2022-08-21T01:45:28;27.20;52.90
34776;DHT22;20989;52.566;13.346;2022-08-21T01:48:29;27.20;52.90
34776;DHT22;20989;52.566;13.346;2022-08-21T01:51:30;27.20;52.90
34776;DHT22;20989;52.566;13.346;2022-08-21T01:54:31;27.20;52.90
34776;DHT22;20989;52.566;13.346;2022-08-21T01:57:33;27.10;52.80
34776;DHT22;20989;52.566;13.346;2022-08-21T02:00:33;27.10;52.80
34776;DHT22;20989;52.566;13.346;2022-08-21T02:03:35;27.20;52.80
34776;DHT22;20989;52.566;13.346;2022-08-21T02:06:37;27.20;52.90
34776;DHT22;20989;52.566;13.346;2022-08-21T02:09:38;27.20;52.90
34776;DHT22;20989;52.566;13.346;2022-08-21T02:12:39;27.20;52.80
34776;DHT22;20989;52.566;13.346;2022-08-21T02:15:40;27.10;52.70
34776;DHT22;20989;52.566;13.346;2022-08-21T02:18:42;27.10;52.70
34776;DHT22;20989;52.566;13.346;2022-08-21T02:21:43;27.20;52.70
34776;DHT22;20989;52.566;13.346;2022-08-21T02:24:44;27.20;52.70
34776;DHT22;20989;52.566;13.346;2022-08-21T02:27:46;27.10;52.70
34776;DHT22;20989;52.566;13.346;2022-08-21T02:30:48;27.20;52.80
34776;DHT22;20989;52.566;13.346;2022-08-21T02:33:49;27.20;52.70
34776;DHT22;20989;52.566;13.346;2022-08-21T02:36:50;27.10;52.70
34776;DHT22;20989;52.566;13.346;2022-08-21T02:39:51;27.10;52.70
34776;DHT22;20989;52.566;13.346;2022-08-21T02:42:52;27.20;52.70
34776;DHT22;20989;52.566;13.346;2022-08-21T02:45:55;27.10;52.70
34776;DHT22;20989;52.566;13.346;2022-08-21T02:48:56;27.10;52.70
34776;DHT22;20989;52.566;13.346;2022-08-21T02:51:57;27.10;52.60
34776;DHT22;20989;52.566;13.346;2022-08-21T02:54:57;27.20;52.70
34776;DHT22;20989;52.566;13.346;2022-08-21T02:57:59;27.10;52.60
34776;DHT22;20989;52.566;13.346;2022-08-21T03:00:59;27.10;52.60
34776;DHT22;20989;52.566;13.346;2022-08-21T03:04:00;27.10;52.60
34776;DHT22;20989;52.566;13.346;2022-08-21T03:07:01;27.10;52.60
34776;DHT22;20989;52.566;13.346;2022-08-21T03:10:04;27.10;52.60
34776;DHT22;20989;52.566;13.346;2022-08-21T03:13:05;27.10;52.60
34776;DHT22;20989;52.566;13.346;2022-08-21T03:16:06;27.10;52.60
34776;DHT22;20989;52.566;13.346;2022-08-21T03:19:07;27.10;52.50
34776;DHT22;20989;52.566;13.346;2022-08-21T03:22:08;27.10;53.00
34776;DHT22;20989;52.566;13.346;2022-08-21T03:25:08;27.10;52.60
34776;DHT22;20989;52.566;13.346;2022-08-21T03:28:13;27.10;52.50
34776;DHT22;20989;52.566;13.346;2022-08-21T03:31:14;27.10;52.50
34776;DHT22;20989;52.566;13.346;2022-08-21T03:34:15;27.10;52.50
34776;DHT22;20989;52.566;13.346;2022-08-21T03:37:15;27.00;52.40
34776;DHT22;20989;52.566;13.346;2022-08-21T03:40:18;27.10;52.50
34776;DHT22;20989;52.566;13.346;2022-08-21T03:43:19;27.10;52.50
34776;DHT22;20989;52.566;13.346;2022-08-21T03:46:20;27.10;52.50
34776;DHT22;20989;52.566;13.346;2022-08-21T03:49:21;27.10;52.50
34776;DHT22;20989;52.566;13.346;2022-08-21T03:52:22;27.10;52.50
34776;DHT22;20989;52.566;13.346;2022-08-21T03:55:23;27.10;52.50
34776;DHT22;20989;52.566;13.346;2022-08-21T03:58:25;27.10;52.40
34776;DHT22;20989;52.566;13.346;2022-08-21T04:01:26;27.10;52.40
34776;DHT22;20989;52.566;13.346;2022-08-21T04:04:28;27.10;52.50
34776;DHT22;20989;52.566;13.346;2022-08-21T04:07:29;27.10;52.40
34776;DHT22;20989;52.566;13.346;2022-08-21T04:10:32;27.00;52.40
34776;DHT22;20989;52.566;13.346;2022-08-21T04:13:33;27.00;52.40
34776;DHT22;20989;52.566;13.346;2022-08-21T04:16:34;27.00;52.30
34776;DHT22;20989;52.566;13.346;2022-08-21T04:19:35;27.10;52.40
34776;DHT22;20989;52.566;13.346;2022-08-21T04:22:35;27.00;52.30
34776;DHT22;20989;52.566;13.346;2022-08-21T04:25:36;27.00;52.30
34776;DHT22;20989;52.566;13.346;2022-08-21T04:28:37;27.00;52.30
34776;DHT22;20989;52.566;13.346;2022-08-21T04:31:37;27.10;52.30
34776;DHT22;20989;52.566;13.346;2022-08-21T04:34:38;27.00;52.30
34776;DHT22;20989;52.566;13.346;2022-08-21T04:37:39;27.00;52.30
34776;DHT22;20989;52.566;13.346;2022-08-21T04:40:39;27.00;52.30
34776;DHT22;20989;52.566;13.346;2022-08-21T04:43:40;27.00;52.20
34776;DHT22;20989;52.566;13.346;2022-08-21T04:46:41;27.00;52.20
34776;DHT22;20989;52.566;13.346;2022-08-21T04:49:41;27.00;52.20
34776;DHT22;20989;52.566;13.346;2022-08-21T04:52:42;27.00;52.20
34776;DHT22;20989;52.566;13.346;2022-08-21T04:55:44;27.00;52.20
34776;DHT22;20989;52.566;13.346;2022-08-21T04:58:46;27.00;52.20
34776;DHT22;20989;52.566;13.346;2022-08-21T05:01:49;27.00;52.20
34776;DHT22;20989;52.566;13.346;2022-08-21T05:04:52;27.00;52.20
34776;DHT22;20989;52.566;13.346;2022-08-21T05:07:53;27.00;52.20
34776;DHT22;20989;52.566;13.346;2022-08-21T05:10:54;27.00;52.10
34776;DHT22;20989;52.566;13.346;2022-08-21T05:13:55;27.00;52.20
34776;DHT22;20989;52.566;13.346;2022-08-21T05:16:56;27.00;52.10
34776;DHT22;20989;52.566;13.346;2022-08-21T05:19:56;27.00;52.10
34776;DHT22;20989;52.566;13.346;2022-08-21T05:22:57;27.00;52.10
34776;DHT22;20989;52.566;13.346;2022-08-21T05:25:58;27.00;52.10
34776;DHT22;20989;52.566;13.346;2022-08-21T05:28:58;27.00;52.10
34776;DHT22;20989;52.566;13.346;2022-08-21T05:31:59;27.00;52.10
34776;DHT22;20989;52.566;13.346;2022-08-21T05:35:00;27.00;52.10
34776;DHT22;20989;52.566;13.346;2022-08-21T05:38:01;27.00;52.10
34776;DHT22;20989;52.566;13.346;2022-08-21T05:41:01;27.00;52.10
34776;DHT22;20989;52.566;13.346;2022-08-21T05:44:02;27.00;52.10
34776;DHT22;20989;52.566;13.346;2022-08-21T05:47:08;27.00;52.10
34776;DHT22;20989;52.566;13.346;2022-08-21T05:50:09;27.00;52.00
34776;DHT22;20989;52.566;13.346;2022-08-21T05:53:10;27.00;52.00
34776;DHT22;20989;52.566;13.346;2022-08-21T05:56:12;27.00;52.00
34776;DHT22;20989;52.566;13.346;2022-08-21T05:59:12;27.00;52.00
34776;DHT22;20989;52.566;13.346;2022-08-21T06:02:13;27.00;52.00
34776;DHT22;20989;52.566;13.346;2022-08-21T06:05:14;26.90;51.90
34776;DHT22;20989;52.566;13.346;2022-08-21T06:08:17;27.00;52.00
34776;DHT22;20989;52.566;13.346;2022-08-21T06:11:18;26.90;52.00
34776;DHT22;20989;52.566;13.346;2022-08-21T06:14:18;26.90;51.90
34776;DHT22;20989;52.566;13.346;2022-08-21T06:17:19;26.90;51.90
34776;DHT22;20989;52.566;13.346;2022-08-21T06:20:20;26.90;51.90
34776;DHT22;20989;52.566;13.346;2022-08-21T06:23:21;26.90;51.90
34776;DHT22;20989;52.566;13.346;2022-08-21T06:26:21;26.90;51.90
34776;DHT22;20989;52.566;13.346;2022-08-21T06:29:22;26.90;51.90
34776;DHT22;20989;52.566;13.346;2022-08-21T06:32:23;26.90;51.90
34776;DHT22;20989;52.566;13.346;2022-08-21T06:35:24;26.90;51.90
34776;DHT22;20989;52.566;13.346;2022-08-21T06:38:25;26.90;51.80
34776;DHT22;20989;52.566;13.346;2022-08-21T06:41:26;26.90;51.90
34776;DHT22;20989;52.566;13.346;2022-08-21T06:44:27;26.90;51.80
34776;DHT22;20989;52.566;13.346;2022-08-21T06:47:27;26.90;51.80
34776;DHT22;20989;52.566;13.346;2022-08-21T06:50:28;26.90;51.80
34776;DHT22;20989;52.566;13.346;2022-08-21T06:53:29;26.90;51.80
34776;DHT22;20989;52.566;13.346;2022-08-21T06:56:29;26.90;51.80
34776;DHT22;20989;52.566;13.346;2022-08-21T06:59:31;26.90;51.90
34776;DHT22;20989;52.566;13.346;2022-08-21T07:02:32;26.90;51.80
34776;DHT22;20989;52.566;13.346;2022-08-21T07:05:33;26.90;51.80
34776;DHT22;20989;52.566;13.346;2022-08-21T07:08:35;26.90;51.80
34776;DHT22;20989;52.566;13.346;2022-08-21T07:11:36;26.90;51.80
34776;DHT22;20989;52.566;13.346;2022-08-21T07:14:38;26.90;51.80
34776;DHT22;20989;52.566;13.346;2022-08-21T07:17:38;26.90;51.80
34776;DHT22;20989;52.566;13.346;2022-08-21T07:20:40;26.90;51.80
34776;DHT22;20989;52.566;13.346;2022-08-21T07:23:44;26.90;51.80
34776;DHT22;20989;52.566;13.346;2022-08-21T07:26:44;26.90;51.80
34776;DHT22;20989;52.566;13.346;2022-08-21T07:29:45;26.90;51.80
34776;DHT22;20989;52.566;13.346;2022-08-21T07:32:46;26.90;51.70
34776;DHT22;20989;52.566;13.346;2022-08-21T07:35:49;26.90;51.80
34776;DHT22;20989;52.566;13.346;2022-08-21T07:38:50;26.90;51.80
34776;DHT22;20989;52.566;13.346;2022-08-21T07:41:51;26.90;51.70
34776;DHT22;20989;52.566;13.346;2022-08-21T07:44:51;26.90;51.70
34776;DHT22;20989;52.566;13.346;2022-08-21T07:47:52;26.90;51.60
34776;DHT22;20989;52.566;13.346;2022-08-21T07:50:53;26.90;51.60
34776;DHT22;20989;52.566;13.346;2022-08-21T07:53:56;26.80;51.50
34776;DHT22;20989;52.566;13.346;2022-08-21T07:56:58;26.80;51.50
34776;DHT22;20989;52.566;13.346;2022-08-21T07:59:59;26.80;51.50
34776;DHT22;20989;52.566;13.346;2022-08-21T08:02:59;26.90;51.60
34776;DHT22;20989;52.566;13.346;2022-08-21T08:06:00;26.90;51.60
34776;DHT22;20989;52.566;13.346;2022-08-21T08:09:01;26.90;51.60
34776;DHT22;20989;52.566;13.346;2022-08-21T08:12:03;26.90;51.60
34776;DHT22;20989;52.566;13.346;2022-08-21T08:15:06;26.80;51.50
34776;DHT22;20989;52.566;13.346;2022-08-21T08:18:07;26.80;51.40
34776;DHT22;20989;52.566;13.346;2022-08-21T08:21:09;26.90;51.50
34776;DHT22;20989;52.566;13.346;2022-08-21T08:24:09;26.80;51.30
34776;DHT22;20989;52.566;13.346;2022-08-21T08:27:10;26.80;51.40
34776;DHT22;20989;52.566;13.346;2022-08-21T08:30:13;26.80;51.40
34776;DHT22;20989;52.566;13.346;2022-08-21T08:33:14;26.80;51.30
34776;DHT22;20989;52.566;13.346;2022-08-21T08:36:17;26.90;51.50
34776;DHT22;20989;52.566;13.346;2022-08-21T08:39:17;26.80;51.40
34776;DHT22;20989;52.566;13.346;2022-08-21T08:42:25;26.80;51.30
34776;DHT22;20989;52.566;13.346;2022-08-21T08:45:28;26.90;51.30
34776;DHT22;20989;52.566;13.346;2022-08-21T08:52:01;26.80;51.30
34776;DHT22;20989;52.566;13.346;2022-08-21T08:58:20;26.90;51.40
34776;DHT22;20989;52.566;13.346;2022-08-21T09:01:22;26.90;51.30
34776;DHT22;20989;52.566;13.346;2022-08-21T09:04:25;26.80;51.20
34776;DHT22;20989;52.566;13.346;2022-08-21T09:14:21;26.90;49.70
34776;DHT22;20989;52.566;13.346;2022-08-21T09:21:12;26.90;47.00
34776;DHT22;20989;52.566;13.346;2022-08-21T09:27:27;26.90;47.10
34776;DHT22;20989;52.566;13.346;2022-08-21T09:30:31;27.00;46.70
34776;DHT22;20989;52.566;13.346;2022-08-21T09:33:32;27.00;48.00
34776;DHT22;20989;52.566;13.346;2022-08-21T09:36:37;27.10;47.50
34776;DHT22;20989;52.566;13.346;2022-08-21T09:39:39;27.20;47.60
34776;DHT22;20989;52.566;13.346;2022-08-21T09:42:40;27.30;47.90
34776;DHT22;20989;52.566;13.346;2022-08-21T09:45:42;27.30;48.00
34776;DHT22;20989;52.566;13.346;2022-08-21T09:48:46;27.30;48.30
34776;DHT22;20989;52.566;13.346;2022-08-21T09:51:51;27.30;48.30
34776;DHT22;20989;52.566;13.346;2022-08-21T09:54:54;27.40;48.60
34776;DHT22;20989;52.566;13.346;2022-08-21T09:57:55;27.40;48.70
34776;DHT22;20989;52.566;13.346;2022-08-21T10:00:59;27.40;48.70
34776;DHT22;20989;52.566;13.346;2022-08-21T10:04:10;27.40;49.20
34776;DHT22;20989;52.566;13.346;2022-08-21T10:07:13;27.40;50.50
34776;DHT22;20989;52.566;13.346;2022-08-21T10:10:21;27.40;48.70
34776;DHT22;20989;52.566;13.346;2022-08-21T10:13:41;27.30;48.40
34776;DHT22;20989;52.566;13.346;2022-08-21T10:17:01;27.40;48.50
34776;DHT22;20989;52.566;13.346;2022-08-21T10:20:13;27.50;49.60
34776;DHT22;20989;52.566;13.346;2022-08-21T10:29:59;27.60;49.70
34776;DHT22;20989;52.566;13.346;2022-08-21T10:33:25;27.60;50.70
34776;DHT22;20989;52.566;13.346;2022-08-21T10:36:36;27.70;50.50
34776;DHT22;20989;52.566;13.346;2022-08-21T10:39:51;27.70;49.40
34776;DHT22;20989;52.566;13.346;2022-08-21T10:43:04;27.80;49.70
34776;DHT22;20989;52.566;13.346;2022-08-21T10:58:51;27.90;50.30
34776;DHT22;20989;52.566;13.346;2022-08-21T11:02:22;27.80;50.30
34776;DHT22;20989;52.566;13.346;2022-08-21T11:05:31;27.70;50.10
34776;DHT22;20989;52.566;13.346;2022-08-21T11:08:46;27.70;50.70
34776;DHT22;20989;52.566;13.346;2022-08-21T11:12:00;27.80;50.00
34776;DHT22;20989;52.566;13.346;2022-08-21T11:18:33;27.80;51.30
34776;DHT22;20989;52.566;13.346;2022-08-21T11:28:35;27.80;51.20
34776;DHT22;20989;52.566;13.346;2022-08-21T11:42:26;27.80;50.90
34776;DHT22;20989;52.566;13.346;2022-08-21T11:45:01;27.90;51.60
34776;DHT22;20989;52.566;13.346;2022-08-21T11:51:17;27.90;50.20
34776;DHT22;20989;52.566;13.346;2022-08-21T11:54:34;28.00;50.30
34776;DHT22;20989;52.566;13.346;2022-08-21T11:57:48;28.00;50.50
34776;DHT22;20989;52.566;13.346;2022-08-21T12:00:58;27.90;50.00
34776;DHT22;20989;52.566;13.346;2022-08-21T12:04:08;28.00;50.60
34776;DHT22;20989;52.566;13.346;2022-08-21T12:07:16;28.00;50.60
34776;DHT22;20989;52.566;13.346;2022-08-21T12:10:18;28.00;50.60
34776;DHT22;20989;52.566;13.346;2022-08-21T12:13:26;27.90;50.50
34776;DHT22;20989;52.566;13.346;2022-08-21T12:16:32;28.00;50.50
34776;DHT22;20989;52.566;13.346;2022-08-21T12:19:33;28.00;50.70
34776;DHT22;20989;52.566;13.346;2022-08-21T12:22:37;28.10;49.60
34776;DHT22;20989;52.566;13.346;2022-08-21T12:25:45;28.10;49.50
34776;DHT22;20989;52.566;13.346;2022-08-21T12:28:47;28.10;49.90
34776;DHT22;20989;52.566;13.346;2022-08-21T12:35:14;28.10;50.20
34776;DHT22;20989;52.566;13.346;2022-08-21T12:38:31;28.10;50.10
34776;DHT22;20989;52.566;13.346;2022-08-21T12:41:38;28.20;49.70
34776;DHT22;20989;52.566;13.346;2022-08-21T12:44:59;28.10;49.80
34776;DHT22;20989;52.566;13.346;2022-08-21T12:48:21;28.20;49.50
34776;DHT22;20989;52.566;13.346;2022-08-21T12:51:26;28.20;49.70
34776;DHT22;20989;52.566;13.346;2022-08-21T12:54:31;28.20;49.80
34776;DHT22;20989;52.566;13.346;2022-08-21T12:57:40;28.20;49.80
34776;DHT22;20989;52.566;13.346;2022-08-21T13:00:51;28.10;49.70
34776;DHT22;20989;52.566;13.346;2022-08-21T13:03:55;28.10;50.10
34776;DHT22;20989;52.566;13.346;2022-08-21T13:06:59;28.20;49.90
34776;DHT22;20989;52.566;13.346;2022-08-21T13:10:23;28.20;49.90
34776;DHT22;20989;52.566;13.346;2022-08-21T13:13:26;28.20;49.70
34776;DHT22;20989;52.566;13.346;2022-08-21T13:16:28;28.20;49.60
34776;DHT22;20989;52.566;13.346;2022-08-21T13:19:30;28.20;49.80
34776;DHT22;20989;52.566;13.346;2022-08-21T13:22:31;28.20;49.60
34776;DHT22;20989;52.566;13.346;2022-08-21T13:25:37;28.30;49.60
34776;DHT22;20989;52.566;13.346;2022-08-21T13:28:37;28.20;49.50
34776;DHT22;20989;52.566;13.346;2022-08-21T13:31:40;28.10;49.40
34776;DHT22;20989;52.566;13.346;2022-08-21T13:34:42;28.10;49.30
34776;DHT22;20989;52.566;13.346;2022-08-21T13:37:44;28.10;49.30
34776;DHT22;20989;52.566;13.346;2022-08-21T13:41:04;28.20;49.30
34776;DHT22;20989;52.566;13.346;2022-08-21T13:47:16;28.20;49.50
34776;DHT22;20989;52.566;13.346;2022-08-21T13:50:18;28.20;49.50
34776;DHT22;20989;52.566;13.346;2022-08-21T13:53:34;28.20;49.50
34776;DHT22;20989;52.566;13.346;2022-08-21T13:56:44;28.20;49.40
34776;DHT22;20989;52.566;13.346;2022-08-21T13:59:45;28.30;49.60
34776;DHT22;20989;52.566;13.346;2022-08-21T14:02:49;28.20;49.60
34776;DHT22;20989;52.566;13.346;2022-08-21T14:05:51;28.30;49.70
34776;DHT22;20989;52.566;13.346;2022-08-21T14:09:00;28.30;49.60
34776;DHT22;20989;52.566;13.346;2022-08-21T14:12:15;28.30;49.50
34776;DHT22;20989;52.566;13.346;2022-08-21T14:15:18;28.30;49.50
34776;DHT22;20989;52.566;13.346;2022-08-21T14:18:22;28.30;49.60
34776;DHT22;20989;52.566;13.346;2022-08-21T14:21:38;28.30;49.50
34776;DHT22;20989;52.566;13.346;2022-08-21T14:24:39;28.30;49.60
34776;DHT22;20989;52.566;13.346;2022-08-21T14:27:50;28.30;49.50
34776;DHT22;20989;52.566;13.346;2022-08-21T14:30:51;28.30;49.90
34776;DHT22;20989;52.566;13.346;2022-08-21T14:33:52;28.30;49.40
34776;DHT22;20989;52.566;13.346;2022-08-21T14:36:53;28.30;49.60
34776;DHT22;20989;52.566;13.346;2022-08-21T14:39:55;28.40;49.70
34776;DHT22;20989;52.566;13.346;2022-08-21T14:42:56;28.40;49.30
34776;DHT22;20989;52.566;13.346;2022-08-21T14:45:58;28.40;49.90
34776;DHT22;20989;52.566;13.346;2022-08-21T14:48:58;28.40;51.20
34776;DHT22;20989;52.566;13.346;2022-08-21T14:51:59;28.40;49.70
34776;DHT22;20989;52.566;13.346;2022-08-21T14:54:59;28.40;49.70
34776;DHT22;20989;52.566;13.346;2022-08-21T14:58:00;28.40;49.70
34776;DHT22;20989;52.566;13.346;2022-08-21T15:01:01;28.40;49.70
34776;DHT22;20989;52.566;13.346;2022-08-21T15:04:04;28.40;49.80
34776;DHT22;20989;52.566;13.346;2022-08-21T15:07:05;28.40;49.70
34776;DHT22;20989;52.566;13.346;2022-08-21T15:10:07;28.40;49.70
34776;DHT22;20989;52.566;13.346;2022-08-21T15:13:08;28.40;49.80
34776;DHT22;20989;52.566;13.346;2022-08-21T15:16:10;28.40;50.20
34776;DHT22;20989;52.566;13.346;2022-08-21T15:19:11;28.40;49.80
34776;DHT22;20989;52.566;13.346;2022-08-21T15:22:11;28.50;49.70
34776;DHT22;20989;52.566;13.346;2022-08-21T15:25:12;28.40;49.70
34776;DHT22;20989;52.566;13.346;2022-08-21T15:28:13;28.40;49.80
34776;DHT22;20989;52.566;13.346;2022-08-21T15:31:14;28.40;49.80
34776;DHT22;20989;52.566;13.346;2022-08-21T15:34:15;28.50;49.90
34776;DHT22;20989;52.566;13.346;2022-08-21T15:37:17;28.50;49.90
34776;DHT22;20989;52.566;13.346;2022-08-21T15:40:18;28.50;49.90
34776;DHT22;20989;52.566;13.346;2022-08-21T15:43:25;28.50;49.80
34776;DHT22;20989;52.566;13.346;2022-08-21T15:46:26;28.50;49.80
34776;DHT22;20989;52.566;13.346;2022-08-21T15:49:26;28.50;50.00
34776;DHT22;20989;52.566;13.346;2022-08-21T15:52:27;28.50;49.90
34776;DHT22;20989;52.566;13.346;2022-08-21T15:55:28;28.50;49.70
34776;DHT22;20989;52.566;13.346;2022-08-21T15:58:28;28.50;49.90
34776;DHT22;20989;52.566;13.346;2022-08-21T16:01:29;28.50;49.90
34776;DHT22;20989;52.566;13.346;2022-08-21T16:04:29;28.50;49.90
34776;DHT22;20989;52.566;13.346;2022-08-21T16:07:30;28.50;50.00
34776;DHT22;20989;52.566;13.346;2022-08-21T16:10:31;28.50;50.20
34776;DHT22;20989;52.566;13.346;2022-08-21T16:13:44;28.50;49.90
34776;DHT22;20989;52.566;13.346;2022-08-21T16:16:45;28.50;49.90
34776;DHT22;20989;52.566;13.346;2022-08-21T16:19:45;28.60;49.90
34776;DHT22;20989;52.566;13.346;2022-08-21T16:22:46;28.60;49.80
34776;DHT22;20989;52.566;13.346;2022-08-21T16:25:47;28.60;50.90
34776;DHT22;20989;52.566;13.346;2022-08-21T16:28:49;28.60;50.30
34776;DHT22;20989;52.566;13.346;2022-08-21T16:31:51;28.60;50.40
34776;DHT22;20989;52.566;13.346;2022-08-21T16:34:52;28.50;50.80
34776;DHT22;20989;52.566;13.346;2022-08-21T16:37:53;28.50;50.80
34776;DHT22;20989;52.566;13.346;2022-08-21T16:40:55;28.40;51.00
34776;DHT22;20989;52.566;13.346;2022-08-21T16:43:55;28.50;51.10
34776;DHT22;20989;52.566;13.346;2022-08-21T16:46:57;28.50;50.90
34776;DHT22;20989;52.566;13.346;2022-08-21T16:49:57;28.50;50.90
34776;DHT22;20989;52.566;13.346;2022-08-21T16:52:58;28.40;51.10
34776;DHT22;20989;52.566;13.346;2022-08-21T16:55:59;28.50;51.90
34776;DHT22;20989;52.566;13.346;2022-08-21T16:59:00;28.50;50.90
34776;DHT22;20989;52.566;13.346;2022-08-21T17:02:01;28.50;51.00
34776;DHT22;20989;52.566;13.346;2022-08-21T17:05:03;28.60;50.90
34776;DHT22;20989;52.566;13.346;2022-08-21T17:08:04;28.50;51.00
34776;DHT22;20989;52.566;13.346;2022-08-21T17:11:07;28.60;51.20
34776;DHT22;20989;52.566;13.346;2022-08-21T17:14:28;28.60;51.80
34776;DHT22;20989;52.566;13.346;2022-08-21T17:17:29;28.60;52.70
34776;DHT22;20989;52.566;13.346;2022-08-21T17:20:29;28.60;51.90
34776;DHT22;20989;52.566;13.346;2022-08-21T17:23:30;28.50;53.10
34776;DHT22;20989;52.566;13.346;2022-08-21T17:26:31;28.50;51.70
34776;DHT22;20989;52.566;13.346;2022-08-21T17:29:36;28.60;51.60
34776;DHT22;20989;52.566;13.346;2022-08-21T17:32:37;28.60;53.40
34776;DHT22;20989;52.566;13.346;2022-08-21T17:35:38;28.60;53.20
34776;DHT22;20989;52.566;13.346;2022-08-21T17:38:39;28.60;55.20
34776;DHT22;20989;52.566;13.346;2022-08-21T17:41:40;28.60;51.90
34776;DHT22;20989;52.566;13.346;2022-08-21T17:44:43;28.60;52.00
34776;DHT22;20989;52.566;13.346;2022-08-21T17:47:44;28.60;52.30
34776;DHT22;20989;52.566;13.346;2022-08-21T17:50:44;28.60;52.40
34776;DHT22;20989;52.566;13.346;2022-08-21T17:53:45;28.60;52.50
34776;DHT22;20989;52.566;13.346;2022-08-21T17:56:46;28.60;52.30
34776;DHT22;20989;52.566;13.346;2022-08-21T17:59:47;28.60;52.30
34776;DHT22;20989;52.566;13.346;2022-08-21T18:02:55;28.60;52.30
34776;DHT22;20989;52.566;13.346;2022-08-21T18:05:58;28.60;52.20
34776;DHT22;20989;52.566;13.346;2022-08-21T18:08:59;28.60;52.50
34776;DHT22;20989;52.566;13.346;2022-08-21T18:12:00;28.60;52.30
34776;DHT22;20989;52.566;13.346;2022-08-21T18:15:01;28.50;52.10
34776;DHT22;20989;52.566;13.346;2022-08-21T18:18:02;28.60;52.10
34776;DHT22;20989;52.566;13.346;2022-08-21T18:21:05;28.50;51.90
34776;DHT22;20989;52.566;13.346;2022-08-21T18:24:06;28.50;51.80
34776;DHT22;20989;52.566;13.346;2022-08-21T18:27:07;28.50;51.90
34776;DHT22;20989;52.566;13.346;2022-08-21T18:30:10;28.40;51.70
34776;DHT22;20989;52.566;13.346;2022-08-21T18:33:12;28.40;51.80
34776;DHT22;20989;52.566;13.346;2022-08-21T18:36:13;28.40;51.80
34776;DHT22;20989;52.566;13.346;2022-08-21T18:39:14;28.40;51.70
34776;DHT22;20989;52.566;13.346;2022-08-21T18:42:16;28.40;51.70
34776;DHT22;20989;52.566;13.346;2022-08-21T18:45:18;28.30;51.60
34776;DHT22;20989;52.566;13.346;2022-08-21T18:48:19;28.30;51.60
34776;DHT22;20989;52.566;13.346;2022-08-21T18:51:20;28.30;51.50
34776;DHT22;20989;52.566;13.346;2022-08-21T18:54:21;28.30;51.60
34776;DHT22;20989;52.566;13.346;2022-08-21T18:57:24;28.30;51.50
34776;DHT22;20989;52.566;13.346;2022-08-21T19:00:34;28.30;51.50
34776;DHT22;20989;52.566;13.346;2022-08-21T19:03:37;28.30;51.50
34776;DHT22;20989;52.566;13.346;2022-08-21T19:06:37;28.20;51.40
34776;DHT22;20989;52.566;13.346;2022-08-21T19:09:38;28.20;51.40
34776;DHT22;20989;52.566;13.346;2022-08-21T19:12:40;28.20;51.40
34776;DHT22;20989;52.566;13.346;2022-08-21T19:15:42;28.20;51.40
34776;DHT22;20989;52.566;13.346;2022-08-21T19:18:46;28.20;51.30
34776;DHT22;20989;52.566;13.346;2022-08-21T19:21:47;28.20;51.40
34776;DHT22;20989;52.566;13.346;2022-08-21T19:24:47;28.20;51.40
34776;DHT22;20989;52.566;13.346;2022-08-21T19:27:48;28.10;51.30
34776;DHT22;20989;52.566;13.346;2022-08-21T19:31:02;28.10;51.30
34776;DHT22;20989;52.566;13.346;2022-08-21T19:37:12;28.00;51.30
34776;DHT22;20989;52.566;13.346;2022-08-21T19:40:15;28.10;51.40
34776;DHT22;20989;52.566;13.346;2022-08-21T19:43:16;28.10;51.30
34776;DHT22;20989;52.566;13.346;2022-08-21T19:46:22;28.00;51.30
34776;DHT22;20989;52.566;13.346;2022-08-21T19:49:27;28.00;51.30
34776;DHT22;20989;52.566;13.346;2022-08-21T19:52:28;28.00;51.30
34776;DHT22;20989;52.566;13.346;2022-08-21T19:55:29;28.00;51.30
34776;DHT22;20989;52.566;13.346;2022-08-21T19:58:38;28.00;51.30
34776;DHT22;20989;52.566;13.346;2022-08-21T20:01:39;28.00;51.30
34776;DHT22;20989;52.566;13.346;2022-08-21T20:04:40;28.00;51.30
34776;DHT22;20989;52.566;13.346;2022-08-21T20:07:40;28.00;51.30
34776;DHT22;20989;52.566;13.346;2022-08-21T20:10:41;28.00;51.30